Comodoro Rivadavia, Argentina
Current Conditions -  °F | °C
As of 10:00 PM on Friday 19 Dec 2014 (Local Time) from SAVC Reporting Station
Few Clouds Few Clouds  
Wind Chill: 52°   Ceiling: Unl
Heat Index: 52°   Visibility: 6mi
Dew Point: 32°   Wind: 2mph
Humidity: 47%   Direction: 250°WSW
Pressure: 29.44"   Gusts: NA
Location:  45.86°S, 67.49°W
Report Text: SAVC 200100Z 25002KT 200V290 9999 FEW035FEW045CB 11/00 Q0997
Loading
Personal Weather Stations






























Interactive Weather Map New forecast layout! Learn more

10-Day Weather Forecast

Advertisements
Track Severe Weather on mobile